createdAt,value
2022-11-18T00:01:31.400Z,6.40
2022-11-18T00:03:58.046Z,6.40
2022-11-18T00:06:25.441Z,6.40
2022-11-18T00:08:52.889Z,6.40
2022-11-18T00:11:41.733Z,6.40
2022-11-18T00:14:21.208Z,6.40
2022-11-18T00:16:49.080Z,6.50
2022-11-18T00:19:16.113Z,6.40
2022-11-18T00:21:42.962Z,6.50
2022-11-18T00:24:09.591Z,6.50
2022-11-18T00:26:36.487Z,6.50
2022-11-18T00:29:03.310Z,6.60
2022-11-18T00:31:30.038Z,6.70
2022-11-18T00:33:56.720Z,6.70
2022-11-18T00:36:23.379Z,6.70
2022-11-18T00:38:50.020Z,6.70
2022-11-18T00:41:16.685Z,6.80
2022-11-18T00:43:43.338Z,6.80
2022-11-18T00:46:12.878Z,6.70
2022-11-18T00:48:39.740Z,6.80
2022-11-18T00:51:08.405Z,6.80
2022-11-18T00:53:35.063Z,6.80
2022-11-18T00:56:01.659Z,6.80
2022-11-18T00:58:28.256Z,6.70
2022-11-18T01:00:54.966Z,6.70
2022-11-18T01:03:21.676Z,6.60
2022-11-18T01:05:48.277Z,6.60
2022-11-18T01:08:15.024Z,6.60
2022-11-18T01:10:41.680Z,6.60
2022-11-18T01:13:20.095Z,6.50
2022-11-18T01:15:50.745Z,6.60
2022-11-18T01:18:17.821Z,6.50
2022-11-18T01:20:45.920Z,6.40
2022-11-18T01:23:12.747Z,6.50
2022-11-18T01:25:39.869Z,6.50
2022-11-18T01:28:06.984Z,6.50
2022-11-18T01:30:34.681Z,6.50
2022-11-18T01:33:01.709Z,6.50
2022-11-18T01:35:28.340Z,6.40
2022-11-18T01:37:54.949Z,6.50
2022-11-18T01:40:21.592Z,6.40
2022-11-18T01:42:48.213Z,6.40
2022-11-18T01:45:33.943Z,6.40
2022-11-18T01:48:02.742Z,6.40
2022-11-18T01:50:29.362Z,6.30
2022-11-18T01:52:57.560Z,6.20
2022-11-18T01:55:25.339Z,6.20
2022-11-18T01:57:51.970Z,6.20
2022-11-18T02:00:18.642Z,6.20
2022-11-18T02:02:45.288Z,6.30
2022-11-18T02:05:12.154Z,6.30
2022-11-18T02:07:39.569Z,6.30
2022-11-18T02:10:07.314Z,6.30
2022-11-18T02:12:33.972Z,6.30
2022-11-18T02:15:00.863Z,6.30
2022-11-18T02:17:30.456Z,6.20
2022-11-18T02:20:09.468Z,6.20
2022-11-18T02:22:39.235Z,6.30
2022-11-18T02:25:26.707Z,6.30
2022-11-18T02:28:01.907Z,6.30
2022-11-18T02:30:28.867Z,6.30
2022-11-18T02:33:03.750Z,6.30
2022-11-18T02:35:32.756Z,6.30
2022-11-18T02:37:59.575Z,6.40
2022-11-18T02:40:29.442Z,6.30
2022-11-18T02:43:06.826Z,6.30
2022-11-18T02:45:33.434Z,6.30
2022-11-18T02:48:01.436Z,6.30
2022-11-18T02:50:28.133Z,6.30
2022-11-18T02:52:56.456Z,6.20
2022-11-18T02:55:23.144Z,6.20
2022-11-18T02:57:49.894Z,6.20
2022-11-18T03:00:16.886Z,6.20
2022-11-18T03:02:47.941Z,6.20
2022-11-18T03:05:27.329Z,6.20
2022-11-18T03:07:55.643Z,6.10
2022-11-18T03:10:22.320Z,6.10
2022-11-18T03:12:52.798Z,6.10
2022-11-18T03:15:19.486Z,6.00
2022-11-18T03:17:54.670Z,6.10
2022-11-18T03:20:27.478Z,6.00
2022-11-18T03:22:56.533Z,6.00
2022-11-18T03:25:23.392Z,5.60
2022-11-18T03:27:53.310Z,6.00
2022-11-18T03:30:20.658Z,6.00
2022-11-18T03:32:52.271Z,6.00
2022-11-18T03:35:21.165Z,6.00
2022-11-18T03:37:47.759Z,6.00
2022-11-18T03:40:24.697Z,6.00
2022-11-18T03:42:52.887Z,6.00
2022-11-18T03:45:20.753Z,6.00
2022-11-18T03:47:52.653Z,6.00
2022-11-18T03:50:21.169Z,6.00
2022-11-18T03:52:48.266Z,5.90
2022-11-18T03:55:17.116Z,5.90
2022-11-18T03:57:57.496Z,5.90
2022-11-18T04:00:24.131Z,5.90
2022-11-18T04:02:50.820Z,5.80
2022-11-18T04:05:18.029Z,5.80
2022-11-18T04:08:02.611Z,5.80
2022-11-18T04:10:29.233Z,5.90
2022-11-18T04:13:04.659Z,5.90
2022-11-18T04:15:32.820Z,6.00
2022-11-18T04:17:59.464Z,6.00
2022-11-18T04:20:26.102Z,6.00
2022-11-18T04:22:52.775Z,6.10
2022-11-18T04:25:19.479Z,6.00
2022-11-18T04:27:46.107Z,6.00
2022-11-18T04:30:13.006Z,6.00
2022-11-18T04:32:39.737Z,5.90
2022-11-18T04:35:06.555Z,5.90
2022-11-18T04:37:33.331Z,5.90
2022-11-18T04:40:00.040Z,5.90
2022-11-18T04:42:26.747Z,5.80
2022-11-18T04:44:53.424Z,5.80
2022-11-18T04:47:20.096Z,5.80
2022-11-18T04:49:46.758Z,5.80
2022-11-18T04:52:13.725Z,5.80
2022-11-18T04:54:40.444Z,5.80
2022-11-18T04:57:07.125Z,5.80
2022-11-18T04:59:33.788Z,5.80
2022-11-18T05:02:01.139Z,5.80
2022-11-18T05:04:30.067Z,5.70
2022-11-18T05:06:56.793Z,5.70
2022-11-18T05:09:27.365Z,5.70
2022-11-18T05:12:21.126Z,5.70
2022-11-18T05:14:50.415Z,5.60
2022-11-18T05:17:17.376Z,5.60
2022-11-18T05:19:44.063Z,5.60
2022-11-18T05:22:10.701Z,5.70
2022-11-18T05:24:37.308Z,5.50
2022-11-18T05:27:03.980Z,5.60
2022-11-18T05:29:30.670Z,5.60
2022-11-18T05:31:57.317Z,5.60
2022-11-18T05:34:24.024Z,5.70
2022-11-18T05:36:50.726Z,5.70
2022-11-18T05:39:17.782Z,5.70
2022-11-18T05:42:03.266Z,5.60
2022-11-18T05:44:29.935Z,5.70
2022-11-18T05:46:56.703Z,5.60
2022-11-18T05:49:23.757Z,5.60
2022-11-18T05:51:50.472Z,5.60
2022-11-18T05:54:17.342Z,5.60
2022-11-18T05:56:46.858Z,5.60
2022-11-18T05:59:14.444Z,5.60
2022-11-18T06:01:41.245Z,5.60
2022-11-18T06:04:09.384Z,5.70
2022-11-18T06:06:36.006Z,5.70
2022-11-18T06:09:03.365Z,5.80
2022-11-18T06:11:30.669Z,5.90
2022-11-18T06:13:59.757Z,5.90
2022-11-18T06:16:26.843Z,4.90
2022-11-18T06:18:53.445Z,6.00
2022-11-18T06:21:20.152Z,6.00
2022-11-18T06:23:46.816Z,6.00
2022-11-18T06:26:14.160Z,6.00
2022-11-18T06:28:40.817Z,6.00
2022-11-18T06:31:07.568Z,6.00
2022-11-18T06:33:34.335Z,6.00
2022-11-18T06:36:00.998Z,6.10
2022-11-18T06:38:27.673Z,6.10
2022-11-18T06:40:54.330Z,6.20
2022-11-18T06:43:39.401Z,6.20
2022-11-18T06:46:25.386Z,6.10
2022-11-18T06:48:52.117Z,6.00
2022-11-18T06:51:18.792Z,6.00
2022-11-18T06:53:45.501Z,5.90
2022-11-18T06:56:12.925Z,5.90
2022-11-18T06:58:39.597Z,5.90
2022-11-18T07:01:11.054Z,6.00
2022-11-18T07:03:38.107Z,6.00
2022-11-18T07:06:04.792Z,6.10
2022-11-18T07:08:31.597Z,5.80
2022-11-18T07:10:58.186Z,6.70
2022-11-18T07:13:24.777Z,6.00
2022-11-18T07:15:51.461Z,6.10
2022-11-18T07:18:18.105Z,6.10
2022-11-18T07:20:44.704Z,6.20
2022-11-18T07:23:11.342Z,6.10
2022-11-18T07:25:42.562Z,6.10
2022-11-18T07:28:11.714Z,6.10
2022-11-18T07:30:38.344Z,6.20
2022-11-18T07:33:04.944Z,6.30
2022-11-18T07:35:31.588Z,6.40
2022-11-18T07:37:58.233Z,6.40
2022-11-18T07:40:24.874Z,6.40
2022-11-18T07:42:51.557Z,6.30
2022-11-18T07:45:18.250Z,6.30
2022-11-18T07:47:44.989Z,6.40
2022-11-18T07:50:11.646Z,6.40
2022-11-18T07:52:38.251Z,6.50
2022-11-18T07:55:05.126Z,6.50
2022-11-18T07:57:31.788Z,6.50
2022-11-18T07:59:58.435Z,6.60
2022-11-18T08:02:25.118Z,6.50
2022-11-18T08:04:51.806Z,6.60
2022-11-18T08:07:18.533Z,6.70
2022-11-18T08:09:45.241Z,6.60
2022-11-18T08:12:11.847Z,6.70
2022-11-18T08:14:38.502Z,6.80
2022-11-18T08:17:05.409Z,6.80
2022-11-18T08:19:34.064Z,6.80
2022-11-18T08:22:00.889Z,6.90
2022-11-18T08:24:27.525Z,7.00
2022-11-18T08:26:54.140Z,7.10
2022-11-18T08:29:25.109Z,7.10
2022-11-18T08:31:52.413Z,7.10
2022-11-18T08:34:19.034Z,7.20
2022-11-18T08:36:45.660Z,7.40
2022-11-18T08:39:12.659Z,7.30
2022-11-18T08:41:40.208Z,7.30
2022-11-18T08:44:10.445Z,7.30
2022-11-18T08:46:37.080Z,7.30
2022-11-18T08:49:03.757Z,7.40
2022-11-18T08:51:30.513Z,7.30
2022-11-18T08:53:57.148Z,7.30
2022-11-18T08:56:24.269Z,7.30
2022-11-18T08:58:51.147Z,7.30
2022-11-18T09:01:17.873Z,7.30
2022-11-18T09:03:44.642Z,7.50
2022-11-18T09:06:12.368Z,7.40
2022-11-18T09:08:39.131Z,7.30
2022-11-18T09:11:06.975Z,7.50
2022-11-18T09:14:00.614Z,7.40
2022-11-18T09:16:24.880Z,7.50
2022-11-18T09:18:54.807Z,7.50
2022-11-18T09:21:21.510Z,6.90
2022-11-18T09:23:48.106Z,7.40
2022-11-18T09:26:15.542Z,7.60
2022-11-18T09:28:42.313Z,7.50
2022-11-18T09:31:09.825Z,7.40
2022-11-18T09:33:36.763Z,7.40
2022-11-18T09:36:03.843Z,7.40
2022-11-18T09:38:30.884Z,7.50
2022-11-18T09:41:06.727Z,7.50
2022-11-18T09:43:42.569Z,7.50
2022-11-18T09:46:32.658Z,7.40
2022-11-18T09:49:12.768Z,7.30
2022-11-18T09:51:46.545Z,7.50
2022-11-18T09:54:23.590Z,7.30
2022-11-18T09:56:50.950Z,7.40
2022-11-18T09:59:17.987Z,7.50
2022-11-18T10:01:44.967Z,7.50
2022-11-18T10:04:19.208Z,7.50
2022-11-18T10:06:46.422Z,7.50
2022-11-18T10:09:13.676Z,7.50
2022-11-18T10:11:42.675Z,7.40
2022-11-18T10:14:43.901Z,7.40
2022-11-18T10:17:15.909Z,7.50
2022-11-18T10:19:42.551Z,7.50
2022-11-18T10:22:24.010Z,7.50
2022-11-18T10:24:52.277Z,7.40
2022-11-18T10:27:19.043Z,7.40
2022-11-18T10:29:46.201Z,7.40
2022-11-18T10:32:13.539Z,7.30
2022-11-18T10:34:47.209Z,7.40
2022-11-18T10:37:21.843Z,7.40
2022-11-18T10:39:54.972Z,7.60
2022-11-18T10:42:24.687Z,7.60
2022-11-18T10:44:51.306Z,7.70
2022-11-18T10:47:24.360Z,7.70
2022-11-18T10:49:51.643Z,8.00
2022-11-18T10:52:18.326Z,7.90
2022-11-18T10:54:45.043Z,8.00
2022-11-18T10:57:21.296Z,8.20
2022-11-18T10:59:54.509Z,6.90
2022-11-18T11:02:30.926Z,8.20
2022-11-18T11:04:58.152Z,8.30
2022-11-18T11:07:33.956Z,8.40
2022-11-18T11:10:06.447Z,8.50
2022-11-18T11:12:33.628Z,8.50
2022-11-18T11:15:02.043Z,8.60
2022-11-18T11:17:31.604Z,8.70
2022-11-18T11:20:06.393Z,8.70
2022-11-18T11:22:33.162Z,8.70
2022-11-18T11:24:59.845Z,8.80
2022-11-18T11:30:38.640Z,8.80
2022-11-18T11:33:11.487Z,8.70
2022-11-18T11:35:57.008Z,8.70
2022-11-18T11:38:32.752Z,9.20
2022-11-18T11:41:22.807Z,8.70
2022-11-18T11:43:49.460Z,8.80
2022-11-18T11:46:25.319Z,8.80
2022-11-18T11:48:54.399Z,8.80
2022-11-18T11:51:26.234Z,8.70
2022-11-18T11:54:31.784Z,8.70
2022-11-18T11:56:59.467Z,8.70
2022-11-18T11:59:37.381Z,8.80
2022-11-18T12:02:13.761Z,8.80
2022-11-18T12:04:49.085Z,8.80
2022-11-18T12:07:18.099Z,8.80
2022-11-18T12:09:58.317Z,8.90
2022-11-18T12:12:34.320Z,8.80
2022-11-18T12:15:13.398Z,8.80
2022-11-18T12:17:53.376Z,8.80
2022-11-18T12:20:49.585Z,8.80
2022-11-18T12:23:20.006Z,8.90
2022-11-18T12:25:46.614Z,8.90
2022-11-18T12:28:22.563Z,8.90
2022-11-18T12:30:49.240Z,9.00
2022-11-18T12:33:18.611Z,9.00
2022-11-18T12:35:48.509Z,8.80
2022-11-18T12:38:29.023Z,8.90
2022-11-18T12:40:55.667Z,8.80
2022-11-18T12:43:44.120Z,8.80
2022-11-18T12:46:29.849Z,8.70
2022-11-18T12:48:56.787Z,8.80
2022-11-18T12:51:24.760Z,8.80
2022-11-18T12:53:52.664Z,8.70
2022-11-18T12:56:19.644Z,8.70
2022-11-18T12:58:50.334Z,8.70
2022-11-18T13:01:18.119Z,8.70
2022-11-18T13:03:44.860Z,8.60
2022-11-18T13:06:17.339Z,8.60
2022-11-18T13:08:44.062Z,8.60
2022-11-18T13:11:37.759Z,8.60
2022-11-18T13:14:23.216Z,8.60
2022-11-18T13:17:08.771Z,8.60
2022-11-18T13:19:35.461Z,8.70
2022-11-18T13:22:20.942Z,8.70
2022-11-18T13:24:48.537Z,8.60
2022-11-18T13:27:38.398Z,8.40
2022-11-18T13:30:12.043Z,8.40
2022-11-18T13:32:55.932Z,8.20
2022-11-18T13:35:23.374Z,8.00
2022-11-18T13:37:50.519Z,7.80
2022-11-18T13:40:24.774Z,7.60
2022-11-18T13:42:51.759Z,7.40
2022-11-18T13:45:18.446Z,7.20
2022-11-18T13:48:11.494Z,7.20
2022-11-18T13:50:39.872Z,6.90
2022-11-18T13:53:25.882Z,6.80
2022-11-18T13:55:57.578Z,6.80
2022-11-18T13:58:29.331Z,6.60
2022-11-18T14:00:56.655Z,6.50
2022-11-18T14:03:27.570Z,6.40
2022-11-18T14:05:54.463Z,6.30
2022-11-18T14:08:26.940Z,6.20
2022-11-18T14:10:53.892Z,6.10
2022-11-18T14:13:23.986Z,6.00
2022-11-18T14:15:50.938Z,5.90
2022-11-18T14:18:19.219Z,5.90
2022-11-18T14:20:49.995Z,5.90
2022-11-18T14:23:16.671Z,5.60
2022-11-18T14:25:43.677Z,6.00
2022-11-18T14:28:13.330Z,5.60
2022-11-18T14:30:41.573Z,5.60
2022-11-18T14:33:19.203Z,5.50
2022-11-18T14:36:04.608Z,5.50
2022-11-18T14:41:46.001Z,5.50
2022-11-18T14:44:13.688Z,5.50
2022-11-18T14:46:40.831Z,5.40
2022-11-18T14:49:10.321Z,5.40
2022-11-18T14:51:36.962Z,5.50
2022-11-18T14:54:03.581Z,5.40
2022-11-18T14:56:31.021Z,5.30
2022-11-18T14:58:57.672Z,5.20
2022-11-18T15:01:30.584Z,5.10
2022-11-18T15:03:57.571Z,5.30
2022-11-18T15:06:24.696Z,5.00
2022-11-18T15:08:52.196Z,5.00
2022-11-18T15:11:21.987Z,5.00
2022-11-18T15:13:48.634Z,5.00
2022-11-18T15:16:22.025Z,5.20
2022-11-18T15:18:49.860Z,5.00
2022-11-18T15:21:16.597Z,5.00
2022-11-18T15:23:43.678Z,4.90
2022-11-18T15:26:18.900Z,5.10
2022-11-18T15:28:46.291Z,4.70
2022-11-18T15:31:13.003Z,4.70
2022-11-18T15:33:39.601Z,4.50
2022-11-18T15:36:09.472Z,4.50
2022-11-18T15:38:36.243Z,4.30
2022-11-18T15:41:02.858Z,4.20
2022-11-18T15:43:29.479Z,4.20
2022-11-18T15:45:56.781Z,4.80
2022-11-18T15:48:23.447Z,5.40
2022-11-18T15:50:54.108Z,3.90
2022-11-18T15:53:21.038Z,3.90
2022-11-18T15:55:47.660Z,3.80
2022-11-18T15:58:17.325Z,3.70
2022-11-18T16:00:45.243Z,3.70
2022-11-18T16:03:12.017Z,3.60
2022-11-18T16:05:38.649Z,3.50
2022-11-18T16:08:05.377Z,4.30
2022-11-18T16:10:50.571Z,3.50
2022-11-18T16:13:20.379Z,3.50
2022-11-18T16:15:48.182Z,3.50
2022-11-18T16:18:16.036Z,3.40
2022-11-18T16:20:42.651Z,3.80
2022-11-18T16:23:09.314Z,3.50
2022-11-18T16:25:35.919Z,3.60
2022-11-18T16:28:07.314Z,3.60
2022-11-18T16:30:53.385Z,3.50
2022-11-18T16:33:20.076Z,3.40
2022-11-18T16:35:47.610Z,3.40
2022-11-18T16:38:14.319Z,3.40
2022-11-18T16:40:40.941Z,3.30
2022-11-18T16:43:07.594Z,3.50
2022-11-18T16:45:34.209Z,3.20
2022-11-18T16:48:01.276Z,3.10
2022-11-18T16:50:27.978Z,3.90
2022-11-18T16:52:54.622Z,4.20
2022-11-18T16:55:21.222Z,3.50
2022-11-18T16:57:49.665Z,3.00
2022-11-18T17:00:16.695Z,2.90
2022-11-18T17:02:43.414Z,2.90
2022-11-18T17:05:10.405Z,3.00
2022-11-18T17:07:38.765Z,3.00
2022-11-18T17:10:05.888Z,3.00
2022-11-18T17:12:32.694Z,2.90
2022-11-18T17:14:59.342Z,3.80
2022-11-18T17:17:25.951Z,3.20
2022-11-18T17:19:52.586Z,2.90
2022-11-18T17:22:19.571Z,4.50
2022-11-18T17:24:46.294Z,2.90
2022-11-18T17:27:12.954Z,3.90
2022-11-18T17:29:39.546Z,2.80
2022-11-18T17:32:06.273Z,2.90
2022-11-18T17:34:32.966Z,2.90
2022-11-18T17:37:06.162Z,2.90
2022-11-18T17:39:33.609Z,4.20
2022-11-18T17:42:15.655Z,3.00
2022-11-18T17:44:42.325Z,3.00
2022-11-18T17:47:08.993Z,3.00
2022-11-18T17:49:35.659Z,4.10
2022-11-18T17:52:02.534Z,3.00
2022-11-18T17:54:29.218Z,3.00
2022-11-18T17:56:58.495Z,3.20
2022-11-18T17:59:25.111Z,2.90
2022-11-18T18:01:57.337Z,2.90
2022-11-18T18:04:25.963Z,3.00
2022-11-18T18:06:53.273Z,2.90
2022-11-18T18:09:26.919Z,3.60
2022-11-18T18:12:23.386Z,4.20
2022-11-18T18:14:59.225Z,3.10
2022-11-18T18:17:58.261Z,3.60
2022-11-18T18:20:33.804Z,2.90
2022-11-18T18:23:09.856Z,2.80
2022-11-18T18:25:42.390Z,2.80
2022-11-18T18:28:15.497Z,2.70
2022-11-18T18:30:50.524Z,2.70
2022-11-18T18:33:22.460Z,3.90
2022-11-18T18:35:55.858Z,2.70
2022-11-18T18:38:39.788Z,2.60
2022-11-18T18:41:22.430Z,2.60
2022-11-18T18:43:57.886Z,3.40
2022-11-18T18:46:32.364Z,2.60
2022-11-18T18:49:10.097Z,3.00
2022-11-18T18:51:48.996Z,2.60
2022-11-18T18:54:24.830Z,2.50
2022-11-18T18:57:06.734Z,3.80
2022-11-18T18:59:39.769Z,2.40
2022-11-18T19:02:17.790Z,2.40
2022-11-18T19:04:52.259Z,3.00
2022-11-18T19:07:31.527Z,2.30
2022-11-18T19:10:07.498Z,3.40
2022-11-18T19:13:03.453Z,2.90
2022-11-18T19:15:45.586Z,2.30
2022-11-18T19:18:18.931Z,2.40
2022-11-18T19:20:54.813Z,3.60
2022-11-18T19:23:55.613Z,2.30
2022-11-18T19:26:33.568Z,2.30
2022-11-18T19:29:10.648Z,2.40
2022-11-18T19:31:46.564Z,2.70
2022-11-18T19:34:21.862Z,2.30
2022-11-18T19:37:04.549Z,2.20
2022-11-18T19:39:45.529Z,3.50
2022-11-18T19:42:25.270Z,2.20
2022-11-18T19:45:07.756Z,2.20
2022-11-18T19:47:48.024Z,2.60
2022-11-18T19:50:34.964Z,2.20
2022-11-18T19:53:30.735Z,3.00
2022-11-18T19:56:09.228Z,2.20
2022-11-18T19:58:50.105Z,2.30
2022-11-18T20:01:39.254Z,2.20
2022-11-18T20:04:12.884Z,2.20
2022-11-18T20:06:51.532Z,2.40
2022-11-18T20:09:30.268Z,2.20
2022-11-18T20:12:09.180Z,2.20
2022-11-18T20:14:48.633Z,2.10
2022-11-18T20:17:27.478Z,2.40
2022-11-18T20:20:09.002Z,2.10
2022-11-18T20:22:47.319Z,2.10
2022-11-18T20:25:16.926Z,2.10
2022-11-18T20:27:58.346Z,2.00
2022-11-18T20:30:34.153Z,2.10
2022-11-18T20:33:17.434Z,2.10
2022-11-18T20:36:01.125Z,2.00
2022-11-18T20:38:36.612Z,2.40
2022-11-18T20:41:23.844Z,2.50
2022-11-18T20:43:59.707Z,2.00
2022-11-18T20:46:36.627Z,2.30
2022-11-18T20:49:20.060Z,2.40
2022-11-18T20:51:59.826Z,2.10
2022-11-18T20:54:41.644Z,2.20
2022-11-18T20:57:13.807Z,2.30
2022-11-18T20:59:52.209Z,3.90
2022-11-18T21:02:27.398Z,2.40
2022-11-18T21:05:04.764Z,2.30
2022-11-18T21:07:49.570Z,2.20
2022-11-18T21:10:25.900Z,2.20
2022-11-18T21:13:15.475Z,2.10
2022-11-18T21:15:51.896Z,2.10
2022-11-18T21:18:27.979Z,2.20
2022-11-18T21:21:20.829Z,2.10
2022-11-18T21:23:59.853Z,3.20
2022-11-18T21:26:39.770Z,2.20
2022-11-18T21:29:18.977Z,2.20
2022-11-18T21:31:55.157Z,2.90
2022-11-18T21:34:34.623Z,2.90
2022-11-18T21:37:12.769Z,2.70
2022-11-18T21:39:51.296Z,2.20
2022-11-18T21:42:27.135Z,2.10
2022-11-18T21:44:56.970Z,2.10
2022-11-18T21:47:44.988Z,1.80
2022-11-18T21:50:26.681Z,2.80
2022-11-18T21:53:02.875Z,2.00
2022-11-18T21:55:44.043Z,2.00
2022-11-18T21:58:21.926Z,1.90
2022-11-18T22:01:02.034Z,1.70
2022-11-18T22:04:01.151Z,1.70
2022-11-18T22:06:39.793Z,1.70
2022-11-18T22:09:41.715Z,1.60
2022-11-18T22:12:18.001Z,1.60
2022-11-18T22:14:57.320Z,1.60
2022-11-18T22:17:35.695Z,1.60
2022-11-18T22:20:09.662Z,1.60
2022-11-18T22:22:54.671Z,1.60
2022-11-18T22:25:30.477Z,1.70
2022-11-18T22:28:09.731Z,1.70
2022-11-18T22:30:45.568Z,1.70
2022-11-18T22:33:21.759Z,1.70
2022-11-18T22:36:00.509Z,1.80
2022-11-18T22:38:39.346Z,1.80
2022-11-18T22:41:09.724Z,1.80
2022-11-18T22:43:46.063Z,1.80
2022-11-18T22:46:30.964Z,1.80
2022-11-18T22:49:08.720Z,1.80
2022-11-18T22:51:48.644Z,1.70
2022-11-18T22:54:38.395Z,1.60
2022-11-18T22:57:10.815Z,2.00
2022-11-18T22:59:49.849Z,1.60
2022-11-18T23:02:27.167Z,1.70
2022-11-18T23:05:02.478Z,1.70
2022-11-18T23:07:41.003Z,1.80
2022-11-18T23:10:21.053Z,1.70
2022-11-18T23:13:11.906Z,1.70
2022-11-18T23:15:56.329Z,2.20
2022-11-18T23:18:37.241Z,1.50
2022-11-18T23:21:19.979Z,1.50
2022-11-18T23:23:54.993Z,1.50
2022-11-18T23:26:29.415Z,1.50
2022-11-18T23:29:03.936Z,1.50
2022-11-18T23:31:39.723Z,1.40
2022-11-18T23:34:17.255Z,1.40
2022-11-18T23:36:53.196Z,1.30
2022-11-18T23:39:28.589Z,1.30
2022-11-18T23:42:09.160Z,1.30
2022-11-18T23:44:53.216Z,1.70
2022-11-18T23:47:27.237Z,1.20
2022-11-18T23:49:59.535Z,1.10
2022-11-18T23:52:34.806Z,1.20
2022-11-18T23:55:12.950Z,1.80
2022-11-18T23:57:48.506Z,1.00
